STS Fryderyk Chopin — SPS2298 — position and weather

sailwx.info

Track history (hours):
 
Tides and Currents Weather Stations Pressure Air Temp Water Temp Dewpoint Dewpoint Depression Visibility Wind Speed Wind Dir Waves Ship Positions

STS Fryderyk Chopin (Poland)

Ship's website: http://www.fryderykchopin.pl/

Last reported at 2019-Nov-10 08:58 UTC. Time now 2019-Nov-15 23:25 UTC.
Position N 36°46' W 002°36'.

Length 44 m; draft 4.2 m.

Type: Sailing vessel. MMSI: 261000290.

Date/timePositionNaut miles runAvg speedWind from/ knotsBaromVisibWave heightAir tempDewpointWater temp
2019-Nov-10 08:58N 36°46' W 002°36'0 0.0
2019-Nov-10 05:58N 36°46' W 002°36'0 0.0
2019-Nov-10 03:58N 36°46' W 002°36'0 0.0
2019-Nov-10 00:55N 36°46' W 002°36'  
2019-Nov-05 08:24N 36°40' W 002°44'9 3.6
2019-Nov-05 06:00N 36°46' W 002°36'0 0.0
2019-Nov-05 03:30N 36°46' W 002°36'0 0.0
2019-Nov-05 00:27N 36°46' W 002°36'0 0.0
2019-Nov-05 00:00N 36°46' W 002°36'0 0.0
2019-Nov-04 23:00N 36°46' W 002°36'0 0.0
2019-Nov-04 19:24N 36°46' W 002°36'6 0.6
2019-Nov-04 10:00N 36°40' W 002°37'104 2.1
2019-Nov-02 09:37N 37°34' W 000°46'4 6.8
2019-Nov-02 09:00N 37°36' W 000°41'4 7.0
2019-Nov-02 08:30N 37°38' W 000°38'8 7.6
2019-Nov-02 07:30N 37°44' W 000°31'8 4.3
2019-Nov-02 05:38N 37°50' W 000°26'1 1.8
2019-Nov-02 04:58N 37°51' W 000°26'6 2.1
2019-Nov-02 01:58N 37°58' W 000°27'1 2.6
2019-Nov-02 01:24N 37°59' W 000°28'1 2.6
2019-Nov-02 00:58N 38°00' W 000°28'  
Track history (hours):
 
Tides and Currents Weather Stations Pressure Air Temp Water Temp Dewpoint Dewpoint Depression Visibility Wind Speed Wind Dir Waves Ship Positions

STS Fryderyk Chopin (Poland)

Ship's website: http://www.fryderykchopin.pl/

Last reported at 2019-Nov-10 08:58 UTC. Time now 2019-Nov-15 23:25 UTC.
Position N 36°46' W 002°36'.

Length 44 m; draft 4.2 m.

Type: Sailing vessel. MMSI: 261000290.

Date/timePositionNaut miles runAvg speedWind from/ knotsBaromVisibWave heightAir tempDewpointWater temp
2019-Nov-10 08:58N 36°46' W 002°36'0 0.0
2019-Nov-10 05:58N 36°46' W 002°36'0 0.0
2019-Nov-10 03:58N 36°46' W 002°36'0 0.0
2019-Nov-10 00:55N 36°46' W 002°36'  
2019-Nov-05 08:24N 36°40' W 002°44'9 3.6
2019-Nov-05 06:00N 36°46' W 002°36'0 0.0
2019-Nov-05 03:30N 36°46' W 002°36'0 0.0
2019-Nov-05 00:27N 36°46' W 002°36'0 0.0
2019-Nov-05 00:00N 36°46' W 002°36'0 0.0
2019-Nov-04 23:00N 36°46' W 002°36'0 0.0
2019-Nov-04 19:24N 36°46' W 002°36'6 0.6
2019-Nov-04 10:00N 36°40' W 002°37'104 2.1
2019-Nov-02 09:37N 37°34' W 000°46'4 6.8
2019-Nov-02 09:00N 37°36' W 000°41'4 7.0
2019-Nov-02 08:30N 37°38' W 000°38'8 7.6
2019-Nov-02 07:30N 37°44' W 000°31'8 4.3
2019-Nov-02 05:38N 37°50' W 000°26'1 1.8
2019-Nov-02 04:58N 37°51' W 000°26'6 2.1
2019-Nov-02 01:58N 37°58' W 000°27'1 2.6
2019-Nov-02 01:24N 37°59' W 000°28'1 2.6
2019-Nov-02 00:58N 38°00' W 000°28'  

Dump ship's entire track history